sensor_id;sensor_type;location;lat;lon;timestamp;P1;durP1;ratioP1;P2;durP2;ratioP2
3991;SDS011;2010;48.194;16.394;2023-05-17T00:02:48;5.00;;;3.70;;
3991;SDS011;2010;48.194;16.394;2023-05-17T00:05:17;3.27;;;3.07;;
3991;SDS011;2010;48.194;16.394;2023-05-17T00:07:52;3.57;;;3.27;;
3991;SDS011;2010;48.194;16.394;2023-05-17T00:10:21;4.07;;;3.67;;
3991;SDS011;2010;48.194;16.394;2023-05-17T00:12:50;3.53;;;3.23;;
3991;SDS011;2010;48.194;16.394;2023-05-17T00:15:20;3.03;;;2.73;;
3991;SDS011;2010;48.194;16.394;2023-05-17T00:17:49;2.93;;;2.83;;
3991;SDS011;2010;48.194;16.394;2023-05-17T00:20:18;3.13;;;2.43;;
3991;SDS011;2010;48.194;16.394;2023-05-17T00:22:50;2.30;;;2.20;;
3991;SDS011;2010;48.194;16.394;2023-05-17T00:25:20;2.87;;;2.67;;
3991;SDS011;2010;48.194;16.394;2023-05-17T00:27:52;3.20;;;2.90;;
3991;SDS011;2010;48.194;16.394;2023-05-17T00:30:20;2.70;;;2.60;;
3991;SDS011;2010;48.194;16.394;2023-05-17T00:32:49;2.77;;;2.60;;
3991;SDS011;2010;48.194;16.394;2023-05-17T00:35:25;3.43;;;2.40;;
3991;SDS011;2010;48.194;16.394;2023-05-17T00:38:00;2.90;;;2.70;;
3991;SDS011;2010;48.194;16.394;2023-05-17T00:40:32;2.57;;;2.47;;
3991;SDS011;2010;48.194;16.394;2023-05-17T00:43:06;2.90;;;2.70;;
3991;SDS011;2010;48.194;16.394;2023-05-17T00:45:36;3.30;;;2.50;;
3991;SDS011;2010;48.194;16.394;2023-05-17T00:48:08;3.63;;;3.00;;
3991;SDS011;2010;48.194;16.394;2023-05-17T00:50:42;2.97;;;2.77;;
3991;SDS011;2010;48.194;16.394;2023-05-17T00:53:17;2.40;;;2.30;;
3991;SDS011;2010;48.194;16.394;2023-05-17T00:55:48;2.43;;;2.33;;
3991;SDS011;2010;48.194;16.394;2023-05-17T00:58:17;2.97;;;2.77;;
3991;SDS011;2010;48.194;16.394;2023-05-17T01:00:48;2.33;;;2.23;;
3991;SDS011;2010;48.194;16.394;2023-05-17T01:03:17;2.77;;;2.20;;
3991;SDS011;2010;48.194;16.394;2023-05-17T01:05:46;2.63;;;2.43;;
3991;SDS011;2010;48.194;16.394;2023-05-17T01:08:19;2.80;;;2.60;;
3991;SDS011;2010;48.194;16.394;2023-05-17T01:10:56;2.13;;;2.03;;
3991;SDS011;2010;48.194;16.394;2023-05-17T01:13:31;2.90;;;2.70;;
3991;SDS011;2010;48.194;16.394;2023-05-17T01:16:07;2.10;;;2.00;;
3991;SDS011;2010;48.194;16.394;2023-05-17T01:18:47;2.33;;;2.23;;
3991;SDS011;2010;48.194;16.394;2023-05-17T01:21:29;2.37;;;2.27;;
3991;SDS011;2010;48.194;16.394;2023-05-17T01:24:29;1.93;;;1.63;;
3991;SDS011;2010;48.194;16.394;2023-05-17T01:27:12;2.30;;;2.20;;
3991;SDS011;2010;48.194;16.394;2023-05-17T01:29:44;2.10;;;2.00;;
3991;SDS011;2010;48.194;16.394;2023-05-17T01:32:19;1.93;;;1.83;;
3991;SDS011;2010;48.194;16.394;2023-05-17T01:34:54;2.07;;;1.97;;
3991;SDS011;2010;48.194;16.394;2023-05-17T01:37:27;2.33;;;2.13;;
3991;SDS011;2010;48.194;16.394;2023-05-17T01:40:03;1.70;;;1.60;;
3991;SDS011;2010;48.194;16.394;2023-05-17T01:42:45;2.40;;;2.30;;
3991;SDS011;2010;48.194;16.394;2023-05-17T01:45:23;2.50;;;2.40;;
3991;SDS011;2010;48.194;16.394;2023-05-17T01:48:05;1.83;;;1.73;;
3991;SDS011;2010;48.194;16.394;2023-05-17T01:50:40;2.00;;;1.90;;
3991;SDS011;2010;48.194;16.394;2023-05-17T01:53:15;1.70;;;1.60;;
3991;SDS011;2010;48.194;16.394;2023-05-17T01:55:54;3.70;;;1.60;;
3991;SDS011;2010;48.194;16.394;2023-05-17T01:58:30;1.90;;;1.80;;
3991;SDS011;2010;48.194;16.394;2023-05-17T02:01:11;1.93;;;1.83;;
3991;SDS011;2010;48.194;16.394;2023-05-17T02:03:42;2.03;;;1.80;;
3991;SDS011;2010;48.194;16.394;2023-05-17T02:06:15;1.40;;;1.30;;
3991;SDS011;2010;48.194;16.394;2023-05-17T02:08:48;1.53;;;1.43;;
3991;SDS011;2010;48.194;16.394;2023-05-17T02:11:21;1.60;;;1.50;;
3991;SDS011;2010;48.194;16.394;2023-05-17T02:13:58;3.00;;;2.00;;
3991;SDS011;2010;48.194;16.394;2023-05-17T02:16:27;1.70;;;1.67;;
3991;SDS011;2010;48.194;16.394;2023-05-17T02:19:03;1.70;;;1.60;;
3991;SDS011;2010;48.194;16.394;2023-05-17T02:21:34;2.10;;;1.43;;
3991;SDS011;2010;48.194;16.394;2023-05-17T02:24:06;1.60;;;1.50;;
3991;SDS011;2010;48.194;16.394;2023-05-17T02:26:46;1.80;;;1.70;;
3991;SDS011;2010;48.194;16.394;2023-05-17T02:29:21;2.50;;;2.00;;
3991;SDS011;2010;48.194;16.394;2023-05-17T02:31:56;1.90;;;1.80;;
3991;SDS011;2010;48.194;16.394;2023-05-17T02:34:29;1.90;;;1.80;;
3991;SDS011;2010;48.194;16.394;2023-05-17T02:37:03;2.10;;;2.00;;
3991;SDS011;2010;48.194;16.394;2023-05-17T02:39:42;2.10;;;2.00;;
3991;SDS011;2010;48.194;16.394;2023-05-17T02:42:27;2.37;;;2.23;;
3991;SDS011;2010;48.194;16.394;2023-05-17T02:45:04;2.43;;;2.27;;
3991;SDS011;2010;48.194;16.394;2023-05-17T02:47:41;2.40;;;1.80;;
3991;SDS011;2010;48.194;16.394;2023-05-17T02:50:13;1.90;;;1.80;;
3991;SDS011;2010;48.194;16.394;2023-05-17T02:52:43;2.47;;;2.27;;
3991;SDS011;2010;48.194;16.394;2023-05-17T02:55:13;2.37;;;2.27;;
3991;SDS011;2010;48.194;16.394;2023-05-17T02:57:47;1.90;;;1.80;;
3991;SDS011;2010;48.194;16.394;2023-05-17T03:00:22;2.37;;;2.27;;
3991;SDS011;2010;48.194;16.394;2023-05-17T03:03:01;2.10;;;2.00;;
3991;SDS011;2010;48.194;16.394;2023-05-17T03:05:33;2.77;;;2.57;;
3991;SDS011;2010;48.194;16.394;2023-05-17T03:08:16;2.47;;;2.30;;
3991;SDS011;2010;48.194;16.394;2023-05-17T03:10:50;3.00;;;2.73;;
3991;SDS011;2010;48.194;16.394;2023-05-17T03:13:20;2.90;;;2.40;;
3991;SDS011;2010;48.194;16.394;2023-05-17T03:15:51;2.00;;;1.90;;
3991;SDS011;2010;48.194;16.394;2023-05-17T03:18:23;2.93;;;2.43;;
3991;SDS011;2010;48.194;16.394;2023-05-17T03:20:54;2.27;;;2.17;;
3991;SDS011;2010;48.194;16.394;2023-05-17T03:23:23;3.13;;;2.60;;
3991;SDS011;2010;48.194;16.394;2023-05-17T03:26:01;2.70;;;2.57;;
3991;SDS011;2010;48.194;16.394;2023-05-17T03:28:42;2.67;;;2.50;;
3991;SDS011;2010;48.194;16.394;2023-05-17T03:31:14;3.00;;;2.70;;
3991;SDS011;2010;48.194;16.394;2023-05-17T03:33:48;2.67;;;2.47;;
3991;SDS011;2010;48.194;16.394;2023-05-17T03:36:31;3.00;;;2.70;;
3991;SDS011;2010;48.194;16.394;2023-05-17T03:39:04;2.57;;;2.37;;
3991;SDS011;2010;48.194;16.394;2023-05-17T03:41:42;2.50;;;2.40;;
3991;SDS011;2010;48.194;16.394;2023-05-17T03:44:15;2.30;;;2.20;;
3991;SDS011;2010;48.194;16.394;2023-05-17T03:46:50;3.30;;;2.47;;
3991;SDS011;2010;48.194;16.394;2023-05-17T03:49:25;2.60;;;2.40;;
3991;SDS011;2010;48.194;16.394;2023-05-17T03:51:55;3.50;;;2.57;;
3991;SDS011;2010;48.194;16.394;2023-05-17T03:54:32;2.70;;;2.50;;
3991;SDS011;2010;48.194;16.394;2023-05-17T03:57:03;2.60;;;2.50;;
3991;SDS011;2010;48.194;16.394;2023-05-17T03:59:32;2.87;;;2.67;;
3991;SDS011;2010;48.194;16.394;2023-05-17T04:02:06;2.40;;;2.20;;
3991;SDS011;2010;48.194;16.394;2023-05-17T04:04:36;3.17;;;2.87;;
3991;SDS011;2010;48.194;16.394;2023-05-17T04:07:16;2.40;;;2.30;;
3991;SDS011;2010;48.194;16.394;2023-05-17T04:09:56;4.17;;;3.10;;
3991;SDS011;2010;48.194;16.394;2023-05-17T04:12:36;2.63;;;2.43;;
3991;SDS011;2010;48.194;16.394;2023-05-17T04:15:08;2.53;;;2.33;;
3991;SDS011;2010;48.194;16.394;2023-05-17T04:17:45;2.50;;;2.40;;
3991;SDS011;2010;48.194;16.394;2023-05-17T04:20:21;2.57;;;2.47;;
3991;SDS011;2010;48.194;16.394;2023-05-17T04:22:52;2.63;;;2.43;;
3991;SDS011;2010;48.194;16.394;2023-05-17T04:25:21;2.20;;;2.10;;
3991;SDS011;2010;48.194;16.394;2023-05-17T04:27:52;2.70;;;2.10;;
3991;SDS011;2010;48.194;16.394;2023-05-17T04:30:24;2.60;;;2.30;;
3991;SDS011;2010;48.194;16.394;2023-05-17T04:32:58;3.23;;;2.60;;
3991;SDS011;2010;48.194;16.394;2023-05-17T04:35:27;2.43;;;1.90;;
3991;SDS011;2010;48.194;16.394;2023-05-17T04:38:02;3.90;;;2.23;;
3991;SDS011;2010;48.194;16.394;2023-05-17T04:40:33;4.30;;;2.47;;
3991;SDS011;2010;48.194;16.394;2023-05-17T04:43:05;3.13;;;2.27;;
3991;SDS011;2010;48.194;16.394;2023-05-17T04:45:42;2.27;;;2.10;;
3991;SDS011;2010;48.194;16.394;2023-05-17T04:48:18;2.30;;;1.80;;
3991;SDS011;2010;48.194;16.394;2023-05-17T04:50:47;2.23;;;1.97;;
3991;SDS011;2010;48.194;16.394;2023-05-17T04:53:18;3.03;;;2.27;;
3991;SDS011;2010;48.194;16.394;2023-05-17T04:55:49;2.03;;;1.93;;
3991;SDS011;2010;48.194;16.394;2023-05-17T04:58:18;2.27;;;2.07;;
3991;SDS011;2010;48.194;16.394;2023-05-17T05:00:55;2.13;;;1.80;;
3991;SDS011;2010;48.194;16.394;2023-05-17T05:03:26;2.40;;;1.67;;
3991;SDS011;2010;48.194;16.394;2023-05-17T05:06:08;2.13;;;1.90;;
3991;SDS011;2010;48.194;16.394;2023-05-17T05:08:46;2.00;;;1.90;;
3991;SDS011;2010;48.194;16.394;2023-05-17T05:11:31;3.13;;;2.33;;
3991;SDS011;2010;48.194;16.394;2023-05-17T05:14:03;2.20;;;2.03;;
3991;SDS011;2010;48.194;16.394;2023-05-17T05:16:35;1.73;;;1.63;;
3991;SDS011;2010;48.194;16.394;2023-05-17T05:19:09;2.10;;;2.00;;
3991;SDS011;2010;48.194;16.394;2023-05-17T05:21:50;2.17;;;2.00;;
3991;SDS011;2010;48.194;16.394;2023-05-17T05:24:25;3.60;;;2.03;;
3991;SDS011;2010;48.194;16.394;2023-05-17T05:26:57;2.33;;;2.20;;
3991;SDS011;2010;48.194;16.394;2023-05-17T05:29:28;3.87;;;1.80;;
3991;SDS011;2010;48.194;16.394;2023-05-17T05:32:06;1.93;;;1.83;;
3991;SDS011;2010;48.194;16.394;2023-05-17T05:34:46;2.40;;;2.07;;
3991;SDS011;2010;48.194;16.394;2023-05-17T05:37:16;2.20;;;1.70;;
3991;SDS011;2010;48.194;16.394;2023-05-17T05:39:49;2.27;;;1.60;;
3991;SDS011;2010;48.194;16.394;2023-05-17T05:42:34;3.20;;;1.40;;
3991;SDS011;2010;48.194;16.394;2023-05-17T05:45:07;10.33;;;2.77;;
3991;SDS011;2010;48.194;16.394;2023-05-17T05:47:38;3.70;;;2.20;;
3991;SDS011;2010;48.194;16.394;2023-05-17T05:50:28;7.40;;;2.60;;
3991;SDS011;2010;48.194;16.394;2023-05-17T05:53:05;4.87;;;2.20;;
3991;SDS011;2010;48.194;16.394;2023-05-17T05:56:03;3.90;;;2.70;;
3991;SDS011;2010;48.194;16.394;2023-05-17T05:58:38;3.30;;;1.90;;
3991;SDS011;2010;48.194;16.394;2023-05-17T06:01:24;2.50;;;2.10;;
3991;SDS011;2010;48.194;16.394;2023-05-17T06:03:56;3.87;;;2.47;;
3991;SDS011;2010;48.194;16.394;2023-05-17T06:06:32;5.43;;;2.37;;
3991;SDS011;2010;48.194;16.394;2023-05-17T06:09:08;8.73;;;2.87;;
3991;SDS011;2010;48.194;16.394;2023-05-17T06:11:45;5.20;;;2.87;;
3991;SDS011;2010;48.194;16.394;2023-05-17T06:14:16;7.10;;;2.20;;
3991;SDS011;2010;48.194;16.394;2023-05-17T06:16:47;6.83;;;3.00;;
3991;SDS011;2010;48.194;16.394;2023-05-17T06:19:15;3.07;;;2.40;;
3991;SDS011;2010;48.194;16.394;2023-05-17T06:21:49;6.87;;;3.00;;
3991;SDS011;2010;48.194;16.394;2023-05-17T06:24:20;3.80;;;3.10;;
3991;SDS011;2010;48.194;16.394;2023-05-17T06:26:50;5.03;;;3.13;;
3991;SDS011;2010;48.194;16.394;2023-05-17T06:29:23;5.53;;;3.10;;
3991;SDS011;2010;48.194;16.394;2023-05-17T06:31:52;8.20;;;3.10;;
3991;SDS011;2010;48.194;16.394;2023-05-17T06:34:36;3.93;;;2.93;;
3991;SDS011;2010;48.194;16.394;2023-05-17T06:37:10;4.37;;;2.73;;
3991;SDS011;2010;48.194;16.394;2023-05-17T06:39:44;4.00;;;2.90;;
3991;SDS011;2010;48.194;16.394;2023-05-17T06:42:25;4.70;;;2.83;;
3991;SDS011;2010;48.194;16.394;2023-05-17T06:44:56;4.00;;;2.93;;
3991;SDS011;2010;48.194;16.394;2023-05-17T06:47:25;2.60;;;2.40;;
3991;SDS011;2010;48.194;16.394;2023-05-17T06:49:54;6.30;;;3.50;;
3991;SDS011;2010;48.194;16.394;2023-05-17T06:52:27;4.57;;;3.17;;
3991;SDS011;2010;48.194;16.394;2023-05-17T06:54:56;4.90;;;3.07;;
3991;SDS011;2010;48.194;16.394;2023-05-17T06:57:30;5.43;;;3.23;;
3991;SDS011;2010;48.194;16.394;2023-05-17T07:00:00;3.90;;;2.77;;
3991;SDS011;2010;48.194;16.394;2023-05-17T07:02:32;6.20;;;3.20;;
3991;SDS011;2010;48.194;16.394;2023-05-17T07:05:10;6.27;;;3.43;;
3991;SDS011;2010;48.194;16.394;2023-05-17T07:07:42;3.93;;;2.90;;
3991;SDS011;2010;48.194;16.394;2023-05-17T07:10:14;4.43;;;3.20;;
3991;SDS011;2010;48.194;16.394;2023-05-17T07:12:47;5.40;;;3.47;;
3991;SDS011;2010;48.194;16.394;2023-05-17T07:15:19;7.20;;;2.87;;
3991;SDS011;2010;48.194;16.394;2023-05-17T07:17:48;9.03;;;3.77;;
3991;SDS011;2010;48.194;16.394;2023-05-17T07:20:17;3.60;;;3.30;;
3991;SDS011;2010;48.194;16.394;2023-05-17T07:22:51;8.93;;;5.00;;
3991;SDS011;2010;48.194;16.394;2023-05-17T07:25:20;4.80;;;3.70;;
3991;SDS011;2010;48.194;16.394;2023-05-17T07:27:48;9.10;;;3.63;;
3991;SDS011;2010;48.194;16.394;2023-05-17T07:30:19;6.40;;;3.30;;
3991;SDS011;2010;48.194;16.394;2023-05-17T07:32:53;8.70;;;3.60;;
3991;SDS011;2010;48.194;16.394;2023-05-17T07:35:24;7.97;;;4.07;;
3991;SDS011;2010;48.194;16.394;2023-05-17T07:38:02;5.10;;;3.10;;
3991;SDS011;2010;48.194;16.394;2023-05-17T07:40:34;5.67;;;4.23;;
3991;SDS011;2010;48.194;16.394;2023-05-17T07:43:04;4.33;;;3.50;;
3991;SDS011;2010;48.194;16.394;2023-05-17T07:45:34;3.73;;;3.10;;
3991;SDS011;2010;48.194;16.394;2023-05-17T07:48:04;4.90;;;3.13;;
3991;SDS011;2010;48.194;16.394;2023-05-17T07:50:36;5.40;;;3.47;;
3991;SDS011;2010;48.194;16.394;2023-05-17T07:53:11;10.63;;;4.03;;
3991;SDS011;2010;48.194;16.394;2023-05-17T07:55:48;10.00;;;3.30;;
3991;SDS011;2010;48.194;16.394;2023-05-17T07:58:18;3.00;;;2.70;;
3991;SDS011;2010;48.194;16.394;2023-05-17T08:00:48;8.03;;;3.00;;
3991;SDS011;2010;48.194;16.394;2023-05-17T08:03:18;4.07;;;3.10;;
3991;SDS011;2010;48.194;16.394;2023-05-17T08:05:50;5.87;;;3.37;;
3991;SDS011;2010;48.194;16.394;2023-05-17T08:08:32;6.23;;;3.20;;
3991;SDS011;2010;48.194;16.394;2023-05-17T08:11:00;5.43;;;3.27;;
3991;SDS011;2010;48.194;16.394;2023-05-17T08:13:28;7.23;;;3.67;;
3991;SDS011;2010;48.194;16.394;2023-05-17T08:15:58;8.77;;;3.63;;
3991;SDS011;2010;48.194;16.394;2023-05-17T08:18:40;5.03;;;3.23;;
3991;SDS011;2010;48.194;16.394;2023-05-17T08:21:13;5.40;;;3.43;;
3991;SDS011;2010;48.194;16.394;2023-05-17T08:23:59;11.13;;;3.07;;
3991;SDS011;2010;48.194;16.394;2023-05-17T08:26:31;3.47;;;2.80;;
3991;SDS011;2010;48.194;16.394;2023-05-17T08:29:02;4.20;;;3.13;;
3991;SDS011;2010;48.194;16.394;2023-05-17T08:31:33;3.83;;;2.57;;
3991;SDS011;2010;48.194;16.394;2023-05-17T08:34:04;5.10;;;3.50;;
3991;SDS011;2010;48.194;16.394;2023-05-17T08:36:34;7.03;;;3.33;;
3991;SDS011;2010;48.194;16.394;2023-05-17T08:39:13;4.20;;;2.60;;
3991;SDS011;2010;48.194;16.394;2023-05-17T08:41:42;4.17;;;3.07;;
3991;SDS011;2010;48.194;16.394;2023-05-17T08:44:15;7.73;;;2.97;;
3991;SDS011;2010;48.194;16.394;2023-05-17T08:46:53;6.33;;;3.13;;
3991;SDS011;2010;48.194;16.394;2023-05-17T08:49:26;2.63;;;2.40;;
3991;SDS011;2010;48.194;16.394;2023-05-17T08:51:58;6.73;;;2.60;;
3991;SDS011;2010;48.194;16.394;2023-05-17T08:54:40;8.93;;;2.87;;
3991;SDS011;2010;48.194;16.394;2023-05-17T08:57:10;7.10;;;3.53;;
3991;SDS011;2010;48.194;16.394;2023-05-17T08:59:41;7.27;;;2.97;;
3991;SDS011;2010;48.194;16.394;2023-05-17T09:02:28;9.63;;;2.77;;
3991;SDS011;2010;48.194;16.394;2023-05-17T09:04:59;8.53;;;3.13;;
3991;SDS011;2010;48.194;16.394;2023-05-17T09:07:33;8.80;;;3.17;;
3991;SDS011;2010;48.194;16.394;2023-05-17T09:10:10;7.93;;;2.43;;
3991;SDS011;2010;48.194;16.394;2023-05-17T09:12:46;5.50;;;2.30;;
3991;SDS011;2010;48.194;16.394;2023-05-17T09:15:19;8.70;;;3.37;;
3991;SDS011;2010;48.194;16.394;2023-05-17T09:17:53;7.83;;;3.17;;
3991;SDS011;2010;48.194;16.394;2023-05-17T09:20:23;5.40;;;3.13;;
3991;SDS011;2010;48.194;16.394;2023-05-17T09:22:59;6.63;;;2.80;;
3991;SDS011;2010;48.194;16.394;2023-05-17T09:25:34;8.83;;;3.50;;
3991;SDS011;2010;48.194;16.394;2023-05-17T09:28:06;4.07;;;3.10;;
3991;SDS011;2010;48.194;16.394;2023-05-17T09:30:35;7.07;;;4.00;;
3991;SDS011;2010;48.194;16.394;2023-05-17T09:33:12;4.43;;;4.13;;
3991;SDS011;2010;48.194;16.394;2023-05-17T09:35:49;9.97;;;3.03;;
3991;SDS011;2010;48.194;16.394;2023-05-17T09:38:19;7.80;;;2.77;;
3991;SDS011;2010;48.194;16.394;2023-05-17T09:41:00;5.60;;;3.00;;
3991;SDS011;2010;48.194;16.394;2023-05-17T09:43:36;5.17;;;3.17;;
3991;SDS011;2010;48.194;16.394;2023-05-17T09:46:06;4.37;;;2.93;;
3991;SDS011;2010;48.194;16.394;2023-05-17T09:48:44;7.10;;;3.07;;
3991;SDS011;2010;48.194;16.394;2023-05-17T09:51:34;4.40;;;2.90;;
3991;SDS011;2010;48.194;16.394;2023-05-17T09:54:04;5.30;;;2.90;;
3991;SDS011;2010;48.194;16.394;2023-05-17T09:56:50;6.40;;;3.57;;
3991;SDS011;2010;48.194;16.394;2023-05-17T09:59:20;4.23;;;3.00;;
3991;SDS011;2010;48.194;16.394;2023-05-17T10:01:49;7.20;;;3.30;;
3991;SDS011;2010;48.194;16.394;2023-05-17T10:04:18;4.53;;;4.03;;
3991;SDS011;2010;48.194;16.394;2023-05-17T10:06:53;5.77;;;3.00;;
3991;SDS011;2010;48.194;16.394;2023-05-17T10:09:22;7.80;;;3.40;;
3991;SDS011;2010;48.194;16.394;2023-05-17T10:12:04;6.03;;;2.60;;
3991;SDS011;2010;48.194;16.394;2023-05-17T10:14:42;3.57;;;2.30;;
3991;SDS011;2010;48.194;16.394;2023-05-17T10:17:13;7.40;;;3.07;;
3991;SDS011;2010;48.194;16.394;2023-05-17T10:19:45;4.33;;;3.83;;
3991;SDS011;2010;48.194;16.394;2023-05-17T10:22:18;5.40;;;3.53;;
3991;SDS011;2010;48.194;16.394;2023-05-17T10:24:50;3.70;;;3.40;;
3991;SDS011;2010;48.194;16.394;2023-05-17T10:27:20;4.63;;;2.90;;
3991;SDS011;2010;48.194;16.394;2023-05-17T10:29:49;7.03;;;3.20;;
3991;SDS011;2010;48.194;16.394;2023-05-17T10:32:23;3.93;;;3.30;;
3991;SDS011;2010;48.194;16.394;2023-05-17T10:34:54;7.33;;;3.40;;
3991;SDS011;2010;48.194;16.394;2023-05-17T10:37:38;8.83;;;3.90;;
3991;SDS011;2010;48.194;16.394;2023-05-17T10:40:10;11.07;;;4.50;;
3991;SDS011;2010;48.194;16.394;2023-05-17T10:42:58;4.00;;;3.07;;
3991;SDS011;2010;48.194;16.394;2023-05-17T10:45:28;9.00;;;3.40;;
3991;SDS011;2010;48.194;16.394;2023-05-17T10:48:07;6.00;;;3.10;;
3991;SDS011;2010;48.194;16.394;2023-05-17T10:50:37;3.70;;;3.30;;
3991;SDS011;2010;48.194;16.394;2023-05-17T10:53:28;5.77;;;3.53;;
3991;SDS011;2010;48.194;16.394;2023-05-17T10:55:57;8.03;;;4.10;;
3991;SDS011;2010;48.194;16.394;2023-05-17T10:58:30;7.07;;;3.20;;
3991;SDS011;2010;48.194;16.394;2023-05-17T11:00:59;4.60;;;3.13;;
3991;SDS011;2010;48.194;16.394;2023-05-17T11:03:29;5.63;;;3.23;;
3991;SDS011;2010;48.194;16.394;2023-05-17T11:06:12;6.97;;;3.57;;
3991;SDS011;2010;48.194;16.394;2023-05-17T11:09:06;11.53;;;3.53;;
3991;SDS011;2010;48.194;16.394;2023-05-17T11:11:37;5.87;;;3.40;;
3991;SDS011;2010;48.194;16.394;2023-05-17T11:14:43;6.03;;;3.20;;
3991;SDS011;2010;48.194;16.394;2023-05-17T11:17:18;8.00;;;4.10;;
3991;SDS011;2010;48.194;16.394;2023-05-17T11:19:48;5.93;;;3.33;;
3991;SDS011;2010;48.194;16.394;2023-05-17T11:22:23;5.63;;;3.63;;
3991;SDS011;2010;48.194;16.394;2023-05-17T11:24:53;4.10;;;3.60;;
3991;SDS011;2010;48.194;16.394;2023-05-17T11:27:25;7.40;;;3.40;;
3991;SDS011;2010;48.194;16.394;2023-05-17T11:30:02;5.43;;;3.10;;
3991;SDS011;2010;48.194;16.394;2023-05-17T11:32:37;5.87;;;3.60;;
3991;SDS011;2010;48.194;16.394;2023-05-17T11:35:07;7.83;;;3.20;;
3991;SDS011;2010;48.194;16.394;2023-05-17T11:37:43;4.90;;;2.87;;
3991;SDS011;2010;48.194;16.394;2023-05-17T11:40:16;4.03;;;3.00;;
3991;SDS011;2010;48.194;16.394;2023-05-17T11:45:44;7.93;;;3.60;;
3991;SDS011;2010;48.194;16.394;2023-05-17T11:48:19;3.20;;;2.90;;
3991;SDS011;2010;48.194;16.394;2023-05-17T11:50:52;6.87;;;3.37;;
3991;SDS011;2010;48.194;16.394;2023-05-17T11:53:29;3.73;;;3.20;;
3991;SDS011;2010;48.194;16.394;2023-05-17T11:56:05;5.60;;;2.93;;
3991;SDS011;2010;48.194;16.394;2023-05-17T11:58:37;5.60;;;3.37;;
3991;SDS011;2010;48.194;16.394;2023-05-17T12:01:16;6.13;;;3.30;;
3991;SDS011;2010;48.194;16.394;2023-05-17T12:03:46;3.70;;;3.40;;
3991;SDS011;2010;48.194;16.394;2023-05-17T12:06:15;3.80;;;3.03;;
3991;SDS011;2010;48.194;16.394;2023-05-17T12:08:47;5.40;;;3.10;;
3991;SDS011;2010;48.194;16.394;2023-05-17T12:11:19;5.47;;;3.63;;
3991;SDS011;2010;48.194;16.394;2023-05-17T12:13:50;4.80;;;3.70;;
3991;SDS011;2010;48.194;16.394;2023-05-17T12:16:21;7.60;;;4.70;;
3991;SDS011;2010;48.194;16.394;2023-05-17T12:18:50;3.87;;;3.47;;
3991;SDS011;2010;48.194;16.394;2023-05-17T12:21:23;5.47;;;3.70;;
3991;SDS011;2010;48.194;16.394;2023-05-17T12:23:57;4.80;;;2.80;;
3991;SDS011;2010;48.194;16.394;2023-05-17T12:26:29;3.47;;;3.17;;
3991;SDS011;2010;48.194;16.394;2023-05-17T12:29:00;7.27;;;3.70;;
3991;SDS011;2010;48.194;16.394;2023-05-17T12:31:37;3.37;;;3.00;;
3991;SDS011;2010;48.194;16.394;2023-05-17T12:34:11;5.33;;;3.10;;
3991;SDS011;2010;48.194;16.394;2023-05-17T12:36:47;4.87;;;3.40;;
3991;SDS011;2010;48.194;16.394;2023-05-17T12:39:22;4.40;;;3.10;;
3991;SDS011;2010;48.194;16.394;2023-05-17T12:41:53;6.80;;;4.47;;
3991;SDS011;2010;48.194;16.394;2023-05-17T12:44:22;8.90;;;3.40;;
3991;SDS011;2010;48.194;16.394;2023-05-17T12:46:54;5.70;;;3.67;;
3991;SDS011;2010;48.194;16.394;2023-05-17T12:49:24;8.93;;;4.43;;
3991;SDS011;2010;48.194;16.394;2023-05-17T12:51:53;11.40;;;4.70;;
3991;SDS011;2010;48.194;16.394;2023-05-17T12:54:27;5.80;;;3.57;;
3991;SDS011;2010;48.194;16.394;2023-05-17T12:56:56;4.83;;;4.03;;
3991;SDS011;2010;48.194;16.394;2023-05-17T12:59:27;6.90;;;4.03;;
3991;SDS011;2010;48.194;16.394;2023-05-17T13:02:03;6.10;;;3.60;;
3991;SDS011;2010;48.194;16.394;2023-05-17T13:04:33;5.67;;;3.77;;
3991;SDS011;2010;48.194;16.394;2023-05-17T13:07:05;7.03;;;4.10;;
3991;SDS011;2010;48.194;16.394;2023-05-17T13:09:36;5.30;;;3.77;;
3991;SDS011;2010;48.194;16.394;2023-05-17T13:12:17;6.50;;;3.03;;
3991;SDS011;2010;48.194;16.394;2023-05-17T13:14:55;11.50;;;4.27;;
3991;SDS011;2010;48.194;16.394;2023-05-17T13:17:35;4.23;;;3.23;;
3991;SDS011;2010;48.194;16.394;2023-05-17T13:20:14;10.70;;;3.40;;
3991;SDS011;2010;48.194;16.394;2023-05-17T13:22:48;6.63;;;3.50;;
3991;SDS011;2010;48.194;16.394;2023-05-17T13:25:18;4.23;;;3.60;;
3991;SDS011;2010;48.194;16.394;2023-05-17T13:27:50;4.60;;;3.20;;
3991;SDS011;2010;48.194;16.394;2023-05-17T13:30:21;5.13;;;3.60;;
3991;SDS011;2010;48.194;16.394;2023-05-17T13:32:53;5.10;;;3.80;;
3991;SDS011;2010;48.194;16.394;2023-05-17T13:35:27;5.23;;;3.00;;
3991;SDS011;2010;48.194;16.394;2023-05-17T13:37:58;3.67;;;2.83;;
3991;SDS011;2010;48.194;16.394;2023-05-17T13:40:33;4.87;;;3.20;;
3991;SDS011;2010;48.194;16.394;2023-05-17T13:43:03;9.90;;;3.57;;
3991;SDS011;2010;48.194;16.394;2023-05-17T13:45:37;3.67;;;3.10;;
3991;SDS011;2010;48.194;16.394;2023-05-17T13:48:07;3.13;;;2.80;;
3991;SDS011;2010;48.194;16.394;2023-05-17T13:50:37;3.47;;;3.17;;
3991;SDS011;2010;48.194;16.394;2023-05-17T13:53:06;12.13;;;3.80;;
3991;SDS011;2010;48.194;16.394;2023-05-17T13:55:40;11.43;;;4.57;;
3991;SDS011;2010;48.194;16.394;2023-05-17T13:58:09;3.83;;;3.47;;
3991;SDS011;2010;48.194;16.394;2023-05-17T14:00:37;5.40;;;2.93;;
3991;SDS011;2010;48.194;16.394;2023-05-17T14:03:10;6.50;;;3.70;;
3991;SDS011;2010;48.194;16.394;2023-05-17T14:05:41;3.73;;;2.93;;
3991;SDS011;2010;48.194;16.394;2023-05-17T14:08:16;3.03;;;2.83;;
3991;SDS011;2010;48.194;16.394;2023-05-17T14:10:49;3.90;;;3.30;;
3991;SDS011;2010;48.194;16.394;2023-05-17T14:13:18;5.90;;;3.73;;
3991;SDS011;2010;48.194;16.394;2023-05-17T14:15:46;3.40;;;3.10;;
3991;SDS011;2010;48.194;16.394;2023-05-17T14:18:19;5.63;;;4.10;;
3991;SDS011;2010;48.194;16.394;2023-05-17T14:20:49;5.40;;;3.50;;
3991;SDS011;2010;48.194;16.394;2023-05-17T14:23:19;4.53;;;4.00;;
3991;SDS011;2010;48.194;16.394;2023-05-17T14:25:49;6.77;;;3.73;;
3991;SDS011;2010;48.194;16.394;2023-05-17T14:28:18;5.20;;;4.13;;
3991;SDS011;2010;48.194;16.394;2023-05-17T14:30:46;7.87;;;3.77;;
3991;SDS011;2010;48.194;16.394;2023-05-17T14:33:15;5.63;;;3.53;;
3991;SDS011;2010;48.194;16.394;2023-05-17T14:35:50;5.83;;;3.73;;
3991;SDS011;2010;48.194;16.394;2023-05-17T14:38:18;5.90;;;4.30;;
3991;SDS011;2010;48.194;16.394;2023-05-17T14:40:49;5.13;;;4.37;;
3991;SDS011;2010;48.194;16.394;2023-05-17T14:43:18;6.70;;;4.80;;
3991;SDS011;2010;48.194;16.394;2023-05-17T14:45:51;5.83;;;4.30;;
3991;SDS011;2010;48.194;16.394;2023-05-17T14:48:20;6.73;;;5.00;;
3991;SDS011;2010;48.194;16.394;2023-05-17T14:50:56;7.57;;;4.80;;
3991;SDS011;2010;48.194;16.394;2023-05-17T14:53:25;6.60;;;5.37;;
3991;SDS011;2010;48.194;16.394;2023-05-17T14:55:56;6.60;;;4.80;;
3991;SDS011;2010;48.194;16.394;2023-05-17T14:58:25;6.30;;;5.03;;
3991;SDS011;2010;48.194;16.394;2023-05-17T15:00:55;7.40;;;5.07;;
3991;SDS011;2010;48.194;16.394;2023-05-17T15:03:34;6.30;;;5.40;;
3991;SDS011;2010;48.194;16.394;2023-05-17T15:06:07;10.60;;;6.63;;
3991;SDS011;2010;48.194;16.394;2023-05-17T15:08:48;8.70;;;6.23;;
3991;SDS011;2010;48.194;16.394;2023-05-17T15:11:24;7.50;;;6.20;;
3991;SDS011;2010;48.194;16.394;2023-05-17T15:13:53;8.83;;;5.63;;
3991;SDS011;2010;48.194;16.394;2023-05-17T15:16:25;7.87;;;5.30;;
3991;SDS011;2010;48.194;16.394;2023-05-17T15:18:56;6.87;;;5.40;;
3991;SDS011;2010;48.194;16.394;2023-05-17T15:21:30;6.90;;;5.50;;
3991;SDS011;2010;48.194;16.394;2023-05-17T15:24:00;7.07;;;6.33;;
3991;SDS011;2010;48.194;16.394;2023-05-17T15:26:32;12.63;;;7.40;;
3991;SDS011;2010;48.194;16.394;2023-05-17T15:29:04;8.13;;;6.67;;
3991;SDS011;2010;48.194;16.394;2023-05-17T15:31:32;7.33;;;5.70;;
3991;SDS011;2010;48.194;16.394;2023-05-17T15:34:01;12.50;;;7.20;;
3991;SDS011;2010;48.194;16.394;2023-05-17T15:36:39;10.10;;;6.90;;
3991;SDS011;2010;48.194;16.394;2023-05-17T15:39:13;16.30;;;7.87;;
3991;SDS011;2010;48.194;16.394;2023-05-17T15:41:42;12.57;;;6.70;;
3991;SDS011;2010;48.194;16.394;2023-05-17T15:44:12;9.73;;;7.40;;